createdAt,value
2023-02-17T00:01:10.992Z,100.00
2023-02-17T00:03:40.612Z,100.00
2023-02-17T00:06:09.380Z,100.00
2023-02-17T00:08:37.487Z,100.00
2023-02-17T00:11:05.927Z,100.00
2023-02-17T00:13:34.319Z,100.00
2023-02-17T00:16:08.297Z,100.00
2023-02-17T00:18:37.127Z,100.00
2023-02-17T00:21:18.302Z,100.00
2023-02-17T00:23:47.528Z,100.00
2023-02-17T00:26:16.496Z,100.00
2023-02-17T00:28:45.028Z,100.00
2023-02-17T00:31:19.021Z,100.00
2023-02-17T00:33:46.965Z,100.00
2023-02-17T00:36:18.676Z,100.00
2023-02-17T00:38:49.016Z,100.00
2023-02-17T00:41:17.156Z,100.00
2023-02-17T00:43:45.140Z,100.00
2023-02-17T00:46:13.167Z,100.00
2023-02-17T00:48:41.261Z,100.00
2023-02-17T00:51:09.787Z,100.00
2023-02-17T00:53:39.141Z,100.00
2023-02-17T00:56:07.988Z,100.00
2023-02-17T00:58:36.313Z,100.00
2023-02-17T01:01:04.779Z,100.00
2023-02-17T01:03:32.805Z,100.00
2023-02-17T01:06:01.234Z,100.00
2023-02-17T01:08:29.106Z,100.00
2023-02-17T01:10:58.346Z,100.00
2023-02-17T01:13:26.205Z,100.00
2023-02-17T01:15:54.949Z,100.00
2023-02-17T01:18:25.058Z,100.00
2023-02-17T01:20:53.032Z,100.00
2023-02-17T01:23:21.068Z,100.00
2023-02-17T01:25:50.725Z,100.00
2023-02-17T01:28:22.234Z,100.00
2023-02-17T01:30:50.374Z,100.00
2023-02-17T01:33:18.368Z,100.00
2023-02-17T01:35:46.135Z,100.00
2023-02-17T01:38:14.069Z,100.00
2023-02-17T01:40:47.577Z,100.00
2023-02-17T01:43:17.337Z,100.00
2023-02-17T01:45:53.383Z,100.00
2023-02-17T01:48:25.513Z,100.00
2023-02-17T01:50:56.431Z,100.00
2023-02-17T01:53:30.981Z,100.00
2023-02-17T01:55:59.200Z,100.00
2023-02-17T01:58:29.096Z,100.00
2023-02-17T02:01:01.586Z,100.00
2023-02-17T02:03:33.472Z,100.00
2023-02-17T02:06:02.961Z,100.00
2023-02-17T02:08:38.927Z,100.00
2023-02-17T02:11:06.878Z,100.00
2023-02-17T02:13:34.603Z,100.00
2023-02-17T02:16:15.363Z,100.00
2023-02-17T02:18:55.116Z,100.00
2023-02-17T02:21:48.858Z,100.00
2023-02-17T02:24:24.709Z,100.00
2023-02-17T02:27:24.200Z,100.00
2023-02-17T02:30:31.167Z,100.00
2023-02-17T02:33:13.430Z,100.00
2023-02-17T02:35:49.028Z,100.00
2023-02-17T02:38:23.287Z,100.00
2023-02-17T02:40:56.206Z,100.00
2023-02-17T02:43:25.130Z,100.00
2023-02-17T02:45:53.019Z,100.00
2023-02-17T02:48:22.126Z,100.00
2023-02-17T02:51:00.865Z,100.00
2023-02-17T02:53:46.044Z,100.00
2023-02-17T02:56:23.734Z,100.00
2023-02-17T02:59:00.297Z,100.00
2023-02-17T03:01:35.470Z,100.00
2023-02-17T03:04:11.851Z,100.00
2023-02-17T03:06:44.940Z,100.00
2023-02-17T03:09:16.245Z,100.00
2023-02-17T03:11:44.035Z,100.00
2023-02-17T03:14:14.094Z,100.00
2023-02-17T03:16:43.442Z,100.00
2023-02-17T03:19:13.743Z,100.00
2023-02-17T03:21:44.885Z,100.00
2023-02-17T03:24:12.765Z,100.00
2023-02-17T03:26:40.540Z,100.00
2023-02-17T03:29:08.307Z,100.00
2023-02-17T03:31:36.789Z,100.00
2023-02-17T03:34:05.014Z,100.00
2023-02-17T03:36:34.366Z,100.00
2023-02-17T03:39:02.209Z,100.00
2023-02-17T03:41:29.957Z,100.00
2023-02-17T03:43:57.726Z,100.00
2023-02-17T03:46:25.476Z,100.00
2023-02-17T03:48:53.260Z,100.00
2023-02-17T03:51:23.666Z,100.00
2023-02-17T03:53:53.565Z,100.00
2023-02-17T03:56:21.782Z,100.00
2023-02-17T03:58:50.340Z,100.00
2023-02-17T04:01:18.179Z,100.00
2023-02-17T04:03:46.872Z,100.00
2023-02-17T04:06:14.907Z,100.00
2023-02-17T04:08:43.087Z,100.00
2023-02-17T04:11:12.394Z,100.00
2023-02-17T04:13:40.985Z,100.00
2023-02-17T04:16:10.786Z,100.00
2023-02-17T04:18:39.248Z,100.00
2023-02-17T04:21:08.048Z,100.00
2023-02-17T04:23:36.702Z,100.00
2023-02-17T04:26:05.206Z,100.00
2023-02-17T04:28:34.794Z,100.00
2023-02-17T04:31:02.647Z,100.00
2023-02-17T04:33:30.919Z,100.00
2023-02-17T04:36:00.375Z,100.00
2023-02-17T04:38:28.544Z,100.00
2023-02-17T04:40:57.011Z,100.00
2023-02-17T04:43:25.120Z,100.00
2023-02-17T04:45:55.071Z,100.00
2023-02-17T04:48:23.177Z,100.00
2023-02-17T04:50:51.348Z,100.00
2023-02-17T04:53:19.083Z,100.00
2023-02-17T04:55:49.870Z,100.00
2023-02-17T04:58:17.642Z,100.00
2023-02-17T05:00:47.223Z,100.00
2023-02-17T05:03:16.526Z,100.00
2023-02-17T05:05:44.228Z,100.00
2023-02-17T05:08:11.962Z,100.00
2023-02-17T05:10:39.799Z,100.00
2023-02-17T05:13:07.615Z,100.00
2023-02-17T05:15:35.864Z,100.00
2023-02-17T05:18:03.693Z,100.00
2023-02-17T05:20:32.843Z,100.00
2023-02-17T05:23:00.641Z,100.00
2023-02-17T05:25:28.660Z,100.00
2023-02-17T05:27:56.421Z,100.00
2023-02-17T05:30:24.529Z,100.00
2023-02-17T05:32:52.424Z,100.00
2023-02-17T05:35:20.302Z,100.00
2023-02-17T05:37:49.454Z,100.00
2023-02-17T05:40:17.508Z,100.00
2023-02-17T05:42:46.061Z,100.00
2023-02-17T05:45:13.835Z,100.00
2023-02-17T05:47:41.569Z,100.00
2023-02-17T05:50:10.011Z,100.00
2023-02-17T05:52:37.829Z,100.00
2023-02-17T05:55:07.786Z,100.00
2023-02-17T05:57:35.557Z,100.00
2023-02-17T06:00:04.244Z,100.00
2023-02-17T06:02:31.967Z,100.00
2023-02-17T06:04:59.874Z,100.00
2023-02-17T06:07:27.684Z,100.00
2023-02-17T06:09:55.459Z,100.00
2023-02-17T06:12:24.594Z,100.00
2023-02-17T06:14:52.418Z,100.00
2023-02-17T06:17:20.160Z,100.00
2023-02-17T06:19:47.973Z,100.00
2023-02-17T06:22:17.776Z,100.00
2023-02-17T06:24:46.444Z,100.00
2023-02-17T06:27:14.203Z,100.00
2023-02-17T06:29:43.544Z,100.00
2023-02-17T06:32:11.309Z,100.00
2023-02-17T06:34:39.271Z,100.00
2023-02-17T06:37:07.067Z,100.00
2023-02-17T06:39:34.833Z,100.00
2023-02-17T06:42:02.547Z,100.00
2023-02-17T06:44:31.166Z,100.00
2023-02-17T06:47:00.312Z,100.00
2023-02-17T06:49:28.130Z,100.00
2023-02-17T06:51:55.866Z,100.00
2023-02-17T06:54:23.566Z,100.00
2023-02-17T06:56:51.376Z,100.00
2023-02-17T06:59:19.136Z,100.00
2023-02-17T07:01:49.328Z,100.00
2023-02-17T07:04:18.845Z,100.00
2023-02-17T07:06:46.590Z,100.00
2023-02-17T07:09:14.412Z,100.00
2023-02-17T07:11:44.463Z,100.00
2023-02-17T07:14:12.361Z,100.00
2023-02-17T07:16:40.497Z,100.00
2023-02-17T07:19:08.297Z,100.00
2023-02-17T07:21:37.514Z,100.00
2023-02-17T07:24:05.522Z,100.00
2023-02-17T07:26:35.955Z,100.00
2023-02-17T07:29:03.904Z,100.00
2023-02-17T07:31:31.983Z,100.00
2023-02-17T07:34:00.009Z,100.00
2023-02-17T07:36:27.813Z,100.00
2023-02-17T07:38:57.227Z,100.00
2023-02-17T07:41:28.601Z,100.00
2023-02-17T07:43:58.353Z,100.00
2023-02-17T07:46:27.209Z,100.00
2023-02-17T07:48:55.071Z,100.00
2023-02-17T07:51:23.895Z,100.00
2023-02-17T07:53:53.307Z,100.00
2023-02-17T07:56:23.568Z,100.00
2023-02-17T07:58:51.703Z,100.00
2023-02-17T08:01:22.192Z,100.00
2023-02-17T08:03:50.395Z,100.00
2023-02-17T08:06:20.538Z,100.00
2023-02-17T08:09:06.624Z,100.00
2023-02-17T08:11:54.287Z,100.00
2023-02-17T08:14:22.619Z,100.00
2023-02-17T08:16:50.557Z,100.00
2023-02-17T08:19:18.737Z,100.00
2023-02-17T08:21:47.072Z,100.00
2023-02-17T08:24:16.196Z,100.00
2023-02-17T08:26:45.557Z,100.00
2023-02-17T08:29:13.758Z,100.00
2023-02-17T08:31:42.816Z,100.00
2023-02-17T08:34:13.332Z,100.00
2023-02-17T08:36:41.390Z,100.00
2023-02-17T08:39:14.097Z,100.00
2023-02-17T08:41:42.430Z,100.00
2023-02-17T08:44:13.270Z,100.00
2023-02-17T08:46:41.816Z,100.00
2023-02-17T08:49:09.722Z,100.00
2023-02-17T08:51:37.812Z,100.00
2023-02-17T08:54:07.111Z,100.00
2023-02-17T08:56:35.724Z,100.00
2023-02-17T08:59:03.774Z,100.00
2023-02-17T09:01:33.094Z,100.00
2023-02-17T09:04:02.155Z,100.00
2023-02-17T09:06:34.700Z,100.00
2023-02-17T09:09:03.255Z,100.00
2023-02-17T09:11:31.146Z,100.00
2023-02-17T09:13:59.220Z,100.00
2023-02-17T09:16:27.067Z,100.00
2023-02-17T09:18:56.438Z,100.00
2023-02-17T09:21:24.221Z,100.00
2023-02-17T09:23:53.728Z,100.00
2023-02-17T09:26:22.031Z,100.00
2023-02-17T09:28:50.364Z,100.00
2023-02-17T09:31:20.065Z,100.00
2023-02-17T09:33:49.350Z,100.00
2023-02-17T09:36:21.172Z,100.00
2023-02-17T09:38:49.809Z,100.00
2023-02-17T09:41:20.869Z,100.00
2023-02-17T09:43:49.076Z,100.00
2023-02-17T09:46:22.302Z,100.00
2023-02-17T09:48:52.016Z,100.00
2023-02-17T09:51:27.897Z,100.00
2023-02-17T09:54:05.542Z,100.00
2023-02-17T09:56:38.009Z,100.00
2023-02-17T09:59:12.480Z,100.00
2023-02-17T10:01:42.110Z,100.00
2023-02-17T10:04:18.295Z,100.00
2023-02-17T10:06:50.683Z,100.00
2023-02-17T10:09:24.435Z,100.00
2023-02-17T10:11:56.100Z,100.00
2023-02-17T10:14:30.227Z,100.00
2023-02-17T10:17:03.649Z,100.00
2023-02-17T10:19:35.402Z,100.00
2023-02-17T10:22:09.892Z,100.00
2023-02-17T10:24:37.852Z,100.00
2023-02-17T10:27:19.589Z,100.00
2023-02-17T10:29:57.004Z,100.00
2023-02-17T10:32:26.577Z,100.00
2023-02-17T10:35:14.105Z,100.00
2023-02-17T10:37:48.264Z,100.00
2023-02-17T10:40:20.481Z,100.00
2023-02-17T10:42:50.777Z,100.00
2023-02-17T10:45:27.354Z,100.00
2023-02-17T10:48:00.182Z,100.00
2023-02-17T10:50:28.037Z,100.00
2023-02-17T10:52:57.794Z,100.00
2023-02-17T10:55:34.919Z,100.00
2023-02-17T10:58:08.083Z,100.00
2023-02-17T11:00:35.976Z,100.00
2023-02-17T11:03:03.835Z,100.00
2023-02-17T11:05:33.835Z,100.00
2023-02-17T11:08:07.105Z,100.00
2023-02-17T11:10:35.815Z,100.00
2023-02-17T11:13:05.138Z,100.00
2023-02-17T11:15:36.677Z,100.00
2023-02-17T11:18:13.468Z,100.00
2023-02-17T11:20:41.354Z,100.00
2023-02-17T11:23:24.033Z,100.00
2023-02-17T11:26:04.795Z,100.00
2023-02-17T11:28:32.795Z,100.00
2023-02-17T11:31:04.847Z,100.00
2023-02-17T11:33:36.228Z,100.00
2023-02-17T11:36:05.997Z,100.00
2023-02-17T11:38:45.746Z,100.00
2023-02-17T11:41:13.569Z,100.00
2023-02-17T11:43:52.924Z,100.00
2023-02-17T11:46:28.820Z,100.00
2023-02-17T11:49:13.023Z,100.00
2023-02-17T11:51:53.205Z,100.00
2023-02-17T11:54:29.255Z,100.00
2023-02-17T11:57:19.463Z,100.00
2023-02-17T12:00:01.524Z,100.00
2023-02-17T12:02:43.204Z,99.92
2023-02-17T12:05:22.957Z,100.00
2023-02-17T12:08:05.729Z,100.00
2023-02-17T12:10:46.746Z,97.43
2023-02-17T12:13:28.048Z,98.84
2023-02-17T12:16:05.777Z,98.20
2023-02-17T12:18:50.152Z,97.69
2023-02-17T12:21:30.337Z,96.43
2023-02-17T12:24:17.532Z,98.85
2023-02-17T12:26:49.420Z,97.50
2023-02-17T12:29:30.335Z,96.63
2023-02-17T12:32:12.039Z,94.35
2023-02-17T12:34:42.952Z,94.23
2023-02-17T12:37:20.134Z,94.29
2023-02-17T12:39:54.072Z,91.92
2023-02-17T12:42:27.243Z,90.17
2023-02-17T12:44:57.623Z,92.62
2023-02-17T12:47:32.369Z,92.60
2023-02-17T12:50:04.972Z,91.76
2023-02-17T12:52:40.189Z,94.78
2023-02-17T12:55:19.882Z,95.44
2023-02-17T12:57:58.209Z,92.69
2023-02-17T13:00:31.195Z,93.46
2023-02-17T13:02:59.907Z,91.25
2023-02-17T13:05:34.478Z,91.84
2023-02-17T13:08:08.436Z,91.98
2023-02-17T13:10:37.822Z,92.97
2023-02-17T13:13:11.482Z,93.25
2023-02-17T13:15:42.801Z,95.95
2023-02-17T13:18:15.192Z,94.87
2023-02-17T13:20:53.250Z,93.67
2023-02-17T13:23:30.795Z,94.88
2023-02-17T13:26:27.638Z,94.48
2023-02-17T13:29:18.537Z,94.86
2023-02-17T13:31:52.739Z,93.70
2023-02-17T13:34:34.351Z,95.45
2023-02-17T13:37:15.536Z,91.62
2023-02-17T13:39:43.740Z,91.84
2023-02-17T13:42:35.312Z,89.89
2023-02-17T13:45:15.568Z,90.14
2023-02-17T13:47:44.518Z,85.85
2023-02-17T13:50:29.373Z,81.61
2023-02-17T13:52:58.253Z,85.28
2023-02-17T13:55:26.604Z,86.66
2023-02-17T13:57:56.191Z,88.86
2023-02-17T14:00:28.845Z,86.55
2023-02-17T14:02:59.282Z,83.66
2023-02-17T14:05:29.445Z,85.00
2023-02-17T14:08:04.321Z,85.61
2023-02-17T14:10:32.573Z,82.90
2023-02-17T14:13:00.463Z,85.76
2023-02-17T14:15:30.542Z,85.32
2023-02-17T14:17:58.385Z,85.36
2023-02-17T14:20:29.395Z,84.52
2023-02-17T14:23:04.414Z,85.58
2023-02-17T14:25:35.636Z,84.08
2023-02-17T14:28:03.531Z,85.88
2023-02-17T14:30:36.783Z,87.46
2023-02-17T14:33:08.945Z,85.28
2023-02-17T14:35:39.380Z,86.67
2023-02-17T14:38:19.915Z,87.41
2023-02-17T14:40:47.714Z,88.11
2023-02-17T14:43:15.481Z,89.04
2023-02-17T14:45:44.526Z,89.23
2023-02-17T14:48:12.312Z,90.69
2023-02-17T14:50:42.467Z,89.74
2023-02-17T14:53:14.611Z,89.21
2023-02-17T14:55:47.324Z,89.72
2023-02-17T14:58:20.696Z,88.97
2023-02-17T15:00:50.203Z,89.53
2023-02-17T15:03:18.416Z,91.60
2023-02-17T15:05:46.598Z,88.49
2023-02-17T15:08:17.184Z,87.23
2023-02-17T15:10:45.477Z,86.95
2023-02-17T15:13:16.044Z,88.86
2023-02-17T15:15:47.416Z,87.19
2023-02-17T15:18:19.204Z,87.13
2023-02-17T15:20:49.599Z,86.17
2023-02-17T15:23:19.365Z,85.78
2023-02-17T15:25:48.142Z,86.64
2023-02-17T15:28:17.970Z,88.94
2023-02-17T15:30:49.048Z,87.12
2023-02-17T15:33:18.699Z,85.71
2023-02-17T15:35:47.224Z,87.74
2023-02-17T15:38:15.308Z,86.63
2023-02-17T15:40:43.193Z,86.15
2023-02-17T15:43:13.450Z,85.14
2023-02-17T15:45:41.264Z,86.81
2023-02-17T15:48:13.283Z,86.25
2023-02-17T15:50:43.036Z,86.93
2023-02-17T15:53:10.832Z,86.85
2023-02-17T15:55:40.341Z,87.27
2023-02-17T15:58:14.212Z,88.02
2023-02-17T16:00:42.051Z,87.45
2023-02-17T16:03:12.074Z,87.49
2023-02-17T16:05:40.208Z,88.30
2023-02-17T16:08:09.853Z,86.42
2023-02-17T16:10:39.515Z,87.54
2023-02-17T16:13:07.938Z,86.98
2023-02-17T16:15:37.553Z,87.97
2023-02-17T16:18:05.413Z,89.36
2023-02-17T16:20:35.038Z,88.22
2023-02-17T16:23:03.928Z,90.01
2023-02-17T16:25:33.150Z,89.13
2023-02-17T16:28:01.113Z,89.49
2023-02-17T16:30:33.972Z,88.24
2023-02-17T16:33:01.933Z,89.37
2023-02-17T16:35:32.132Z,89.03
2023-02-17T16:38:02.840Z,88.65
2023-02-17T16:40:32.394Z,88.81
2023-02-17T16:43:01.527Z,88.80
2023-02-17T16:45:31.446Z,88.46
2023-02-17T16:48:01.731Z,91.42
2023-02-17T16:50:31.139Z,90.35
2023-02-17T16:53:00.600Z,89.77
2023-02-17T16:55:30.712Z,92.00
2023-02-17T16:57:59.318Z,91.37
2023-02-17T17:00:31.200Z,91.52
2023-02-17T17:02:59.631Z,91.41
2023-02-17T17:05:29.567Z,91.95
2023-02-17T17:07:57.956Z,93.99
2023-02-17T17:10:28.076Z,98.34
2023-02-17T17:12:56.266Z,96.98
2023-02-17T17:15:24.105Z,97.49
2023-02-17T17:17:57.217Z,96.18
2023-02-17T17:20:31.000Z,95.54
2023-02-17T17:23:00.182Z,96.21
2023-02-17T17:25:29.045Z,98.69
2023-02-17T17:27:57.976Z,99.27
2023-02-17T17:30:28.283Z,100.00
2023-02-17T17:32:57.378Z,99.21
2023-02-17T17:35:25.594Z,98.60
2023-02-17T17:37:53.355Z,100.00
2023-02-17T17:40:23.379Z,99.67
2023-02-17T17:42:51.339Z,99.64
2023-02-17T17:45:19.651Z,100.00
2023-02-17T17:47:47.415Z,99.04
2023-02-17T17:50:20.421Z,100.00
2023-02-17T17:52:48.305Z,100.00
2023-02-17T17:55:16.442Z,100.00
2023-02-17T17:57:45.731Z,100.00
2023-02-17T18:00:16.834Z,100.00
2023-02-17T18:02:44.713Z,99.82
2023-02-17T18:05:13.031Z,100.00
2023-02-17T18:07:44.913Z,100.00
2023-02-17T18:10:14.727Z,100.00
2023-02-17T18:12:43.924Z,100.00
2023-02-17T18:15:12.031Z,100.00
2023-02-17T18:17:43.004Z,100.00
2023-02-17T18:20:13.345Z,100.00
2023-02-17T18:22:43.061Z,100.00
2023-02-17T18:25:11.955Z,100.00
2023-02-17T18:27:41.640Z,100.00
2023-02-17T18:30:11.590Z,100.00
2023-02-17T18:32:39.402Z,99.31
2023-02-17T18:35:07.687Z,99.87
2023-02-17T18:37:35.631Z,100.00
2023-02-17T18:40:06.075Z,100.00
2023-02-17T18:42:34.305Z,100.00
2023-02-17T18:45:02.102Z,100.00
2023-02-17T18:47:30.883Z,100.00
2023-02-17T18:49:58.885Z,100.00
2023-02-17T18:52:26.751Z,98.83
2023-02-17T18:54:54.536Z,100.00
2023-02-17T18:57:23.657Z,100.00
2023-02-17T18:59:51.408Z,100.00
2023-02-17T19:02:19.162Z,100.00
2023-02-17T19:04:46.973Z,99.52
2023-02-17T19:07:14.792Z,100.00
2023-02-17T19:09:43.298Z,100.00
2023-02-17T19:12:13.473Z,98.86
2023-02-17T19:14:43.303Z,100.00
2023-02-17T19:17:11.934Z,100.00
2023-02-17T19:19:41.127Z,100.00
2023-02-17T19:22:09.624Z,100.00
2023-02-17T19:24:38.485Z,100.00
2023-02-17T19:27:07.017Z,100.00
2023-02-17T19:29:35.492Z,100.00
2023-02-17T19:32:05.670Z,100.00
2023-02-17T19:34:33.471Z,100.00
2023-02-17T19:37:01.295Z,100.00
2023-02-17T19:39:29.064Z,100.00
2023-02-17T19:41:56.816Z,100.00
2023-02-17T19:44:24.546Z,100.00
2023-02-17T19:46:53.766Z,100.00
2023-02-17T19:49:22.979Z,100.00
2023-02-17T19:51:50.892Z,100.00
2023-02-17T19:54:18.731Z,100.00
2023-02-17T19:56:48.314Z,100.00
2023-02-17T19:59:16.117Z,100.00
2023-02-17T20:01:44.279Z,100.00
2023-02-17T20:04:12.211Z,100.00
2023-02-17T20:06:43.591Z,99.80
2023-02-17T20:09:15.425Z,99.48
2023-02-17T20:11:43.886Z,100.00
2023-02-17T20:14:12.057Z,100.00
2023-02-17T20:16:40.560Z,100.00
2023-02-17T20:19:08.766Z,100.00
2023-02-17T20:21:38.552Z,100.00
2023-02-17T20:24:08.095Z,100.00
2023-02-17T20:26:40.387Z,100.00
2023-02-17T20:29:09.717Z,99.84
2023-02-17T20:31:38.604Z,98.96
2023-02-17T20:34:08.370Z,100.00
2023-02-17T20:36:36.131Z,99.42
2023-02-17T20:39:04.305Z,99.80
2023-02-17T20:41:33.500Z,99.47
2023-02-17T20:44:02.896Z,99.59
2023-02-17T20:46:32.893Z,99.31
2023-02-17T20:49:00.607Z,99.95
2023-02-17T20:51:28.386Z,99.86
2023-02-17T20:53:56.182Z,99.37
2023-02-17T20:56:26.338Z,99.08
2023-02-17T20:58:55.868Z,100.00
2023-02-17T21:01:23.639Z,100.00
2023-02-17T21:03:51.395Z,100.00
2023-02-17T21:06:22.509Z,100.00
2023-02-17T21:08:52.436Z,100.00
2023-02-17T21:11:20.398Z,100.00
2023-02-17T21:13:48.902Z,100.00
2023-02-17T21:16:19.900Z,100.00
2023-02-17T21:18:48.054Z,100.00
2023-02-17T21:21:16.483Z,100.00
2023-02-17T21:23:44.544Z,100.00
2023-02-17T21:26:14.111Z,99.55
2023-02-17T21:28:42.290Z,100.00
2023-02-17T21:31:10.823Z,99.81
2023-02-17T21:33:42.102Z,100.00
2023-02-17T21:36:11.272Z,100.00
2023-02-17T21:38:39.817Z,100.00
2023-02-17T21:41:10.538Z,99.37
2023-02-17T21:43:55.959Z,99.98
2023-02-17T21:46:24.590Z,100.00
2023-02-17T21:48:54.088Z,100.00
2023-02-17T21:51:22.007Z,100.00
2023-02-17T21:53:49.929Z,100.00
2023-02-17T21:56:17.761Z,100.00
2023-02-17T21:58:47.778Z,98.48
2023-02-17T22:01:16.163Z,100.00
2023-02-17T22:03:43.998Z,99.56
2023-02-17T22:06:19.006Z,99.49
2023-02-17T22:08:46.924Z,98.60
2023-02-17T22:11:16.006Z,100.00
2023-02-17T22:13:44.051Z,100.00
2023-02-17T22:16:12.237Z,99.57
2023-02-17T22:18:40.131Z,100.00
2023-02-17T22:21:09.993Z,100.00
2023-02-17T22:23:39.711Z,100.00
2023-02-17T22:26:09.794Z,100.00
2023-02-17T22:28:38.005Z,100.00
2023-02-17T22:31:06.801Z,100.00
2023-02-17T22:33:35.247Z,100.00
2023-02-17T22:36:06.276Z,100.00
2023-02-17T22:38:34.886Z,100.00
2023-02-17T22:41:08.208Z,100.00
2023-02-17T22:43:36.370Z,100.00
2023-02-17T22:46:04.372Z,100.00
2023-02-17T22:48:33.069Z,100.00
2023-02-17T22:51:06.073Z,100.00
2023-02-17T22:53:33.971Z,100.00
2023-02-17T22:56:01.881Z,100.00
2023-02-17T22:58:31.355Z,100.00
2023-02-17T23:01:04.454Z,100.00
2023-02-17T23:03:32.291Z,100.00
2023-02-17T23:06:01.402Z,100.00
2023-02-17T23:08:29.211Z,100.00
2023-02-17T23:10:56.974Z,100.00
2023-02-17T23:13:24.739Z,100.00
2023-02-17T23:15:53.846Z,100.00
2023-02-17T23:18:21.650Z,100.00
2023-02-17T23:20:51.696Z,100.00
2023-02-17T23:23:20.235Z,100.00
2023-02-17T23:25:50.768Z,100.00
2023-02-17T23:28:19.024Z,100.00
2023-02-17T23:30:47.835Z,100.00
2023-02-17T23:33:17.659Z,100.00
2023-02-17T23:35:46.249Z,100.00
2023-02-17T23:38:15.492Z,100.00
2023-02-17T23:40:43.703Z,100.00
2023-02-17T23:43:11.587Z,100.00
2023-02-17T23:45:39.513Z,100.00
2023-02-17T23:48:07.620Z,100.00
2023-02-17T23:50:36.849Z,99.64
2023-02-17T23:53:05.167Z,99.67
2023-02-17T23:55:32.906Z,100.00
2023-02-17T23:58:01.036Z,100.00
